Home > Products > Valid Products > TAF

000
FTUS42 KTBW 161500 AAA
TAFPIE
TAF AMD
KPIE 161546Z 1616/1712 05012KT P6SM FEW080 SCT250
     FM170200 07015G22KT P6SM BKN025=



000
FTUS42 KTBW 161500 AAA
TAFFMY
TAF AMD
KFMY 161544Z 1616/1712 05011KT P6SM BKN015
     FM161800 05010KT P6SM SCT020 BKN250
     FM170200 06008KT P6SM BKN025=



000
FTUS42 KTBW 161500 AAA
TAFRSW
TAF AMD
KRSW 161544Z 1616/1712 05012KT P6SM OVC020
     FM161800 05010KT P6SM SCT020 BKN250
     FM170200 06008KT P6SM BKN025=



000
FTUS42 KTBW 161500 AAA
TAFSRQ
TAF AMD
KSRQ 161542Z 1616/1712 05011KT P6SM BKN020
     FM161800 05012G20KT P6SM SCT250
     FM170200 07011KT P6SM BKN025=



000
FTUS42 KTBW 161500 AAA
TAFTPA
TAF AMD
KTPA 161500Z 1615/1712 04011KT P6SM FEW080 SCT250
     FM170200 05010KT P6SM BKN025=



000
FTUS42 KTBW 161100
TAFRSW
TAF
KRSW 161134Z 1612/1712 01010KT P6SM OVC020
     FM161800 05010KT P6SM SCT020 BKN250
     FM170200 06008KT P6SM BKN025=



000
FTUS42 KTBW 161100
TAFPIE
TAF
KPIE 161134Z 1612/1712 02013KT P6SM BKN015 BKN250
      TEMPO 1612/1614 SCT015
     FM161400 04012G18KT P6SM SCT250
     FM170200 07015G22KT P6SM BKN025=



000
FTUS42 KTBW 161100
TAFSRQ
TAF
KSRQ 161134Z 1612/1712 34010KT P6SM BKN020
     FM161600 05012G20KT P6SM SCT250
     FM170200 07011KT P6SM BKN025=



000
FTUS42 KTBW 161100
TAFFMY
TAF
KFMY 161134Z 1612/1712 01011KT P6SM BKN020
     FM161800 05010KT P6SM SCT020 BKN250
     FM170200 06008KT P6SM BKN025=



000
FTUS42 KTBW 161100
TAFTPA
TAF
KTPA 161134Z 1612/1712 01009KT P6SM BKN015 BKN250
      TEMPO 1612/1614 SCT020
     FM161400 04011G16KT P6SM SCT250
     FM170200 05010KT P6SM BKN025=



000
FTUS42 KTBW 160800 AAA
TAFTPA
TAF AMD
KTPA 160855Z 1609/1706 36008KT P6SM SCT020 SCT250
     FM161400 04011KT P6SM FEW250
     FM170200 05010KT P6SM SCT030=



000
FTUS42 KTBW 160800 AAA
TAFSRQ
TAF AMD
KSRQ 160827Z 1608/1706 34010KT P6SM BKN020
     FM161400 05012KT P6SM FEW250
     FM170200 07011KT P6SM SCT030=



000
FTUS42 KTBW 160500
TAFSRQ
TAF
KSRQ 160533Z 1606/1706 34010KT P6SM SCT020 SCT250
     FM161400 05012KT P6SM FEW250
     FM170200 07011KT P6SM SCT030=



000
FTUS42 KTBW 160500
TAFTPA
TAF
KTPA 160533Z 1606/1706 32008KT P6SM SCT020 SCT250
     FM161400 04011KT P6SM FEW250
     FM170200 05010KT P6SM SCT030=



000
FTUS42 KTBW 160500
TAFPIE
TAF
KPIE 160533Z 1606/1706 34010KT P6SM SCT025 SCT250
     FM161400 05012G18KT P6SM FEW250
     FM170200 07015G22KT P6SM SCT030=



000
FTUS42 KTBW 160500
TAFFMY
TAF
KFMY 160533Z 1606/1706 35006KT P6SM BKN020
     FM161500 05011KT P6SM SCT020 BKN250=



000
FTUS42 KTBW 160500
TAFRSW
TAF
KRSW 160533Z 1606/1706 36005KT P6SM OVC015
     FM161500 05010KT P6SM SCT020 BKN250=



000
FTUS42 KTBW 160200 AAA
TAFTPA
TAF AMD
KTPA 160257Z 1603/1624 32008KT P6SM SCT020 BKN250
     FM161400 04012G18KT P6SM FEW250=



000
FTUS42 KTBW 160000 CCA
TAFRSW
TAF COR
KRSW 160017Z 1600/1624 29012G20KT P6SM SCT015 SCT050 BKN100
      TEMPO 1600/1603 -RA BKN015
     FM160300 34006KT P6SM FEW015 BKN200
     FM161400 05012KT P6SM SCT090 BKN150=



000
FTUS42 KTBW 152300
TAFRSW
TAF
KRSW 152327Z 1600/1624 29012G20KT P6SM SCT015 SCT050 BKN100
     FM160300 34006KT P6SM FEW015 BKN200
     FM161400 05012KT P6SM SCT090 BKN150=



000
FTUS42 KTBW 152300
TAFSRQ
TAF
KSRQ 152327Z 1600/1624 31016G25KT P6SM BKN008 OVC020
      TEMPO 1600/1603 SCT008 BKN020 OVC050
     FM160300 32013KT P6SM SCT020 BKN200
     FM161400 03012G18KT P6SM SCT150=



000
FTUS42 KTBW 152300
TAFFMY
TAF
KFMY 152327Z 1600/1624 29012G20KT P6SM SCT015 SCT050 BKN100
      TEMPO 1600/1603 -RA BKN015
     FM160300 33010KT P6SM FEW015 BKN200
     FM161400 05011KT P6SM BKN150=



000
FTUS42 KTBW 152300
TAFPIE
TAF
KPIE 152327Z 1600/1624 32015G24KT P6SM SCT007 BKN010 OVC020
      TEMPO 1600/1603 SCT010 BKN020 OVC050
     FM160300 33014KT P6SM SCT035 BKN200
     FM161400 05012G20KT P6SM FEW250=



000
FTUS42 KTBW 152300
TAFTPA
TAF
KTPA 152327Z 1600/1624 31012G20KT P6SM BKN007 OVC015
      TEMPO 1600/1603 SCT007 BKN015 OVC050
     FM160300 32012KT P6SM SCT035 BKN200
     FM161400 04012G18KT P6SM FEW250=



000
FTUS42 KTBW 152200 AAB
TAFTPA
TAF AMD
KTPA 152205Z 1522/1618 27015G23KT P6SM VCSH OVC015
      TEMPO 1522/1523 -RA SCT010 OVC050
     FM160100 32012KT P6SM BKN100
     FM160400 35010KT P6SM SCT200
     FM161400 04012KT P6SM SCT250=



000
FTUS42 KTBW 152200 AAA
TAFRSW
TAF AMD
KRSW 152204Z 1522/1618 26012KT P6SM SCT015 BKN025
      TEMPO 1522/1524 -RA SCT025 BKN050 OVC100
     FM160000 28010KT P6SM BKN100
     FM160300 30008KT P6SM BKN100
     FM161100 36010KT P6SM BKN080
     FM161400 04011KT P6SM BKN100=



000
FTUS42 KTBW 152200 AAA
TAFFMY
TAF AMD
KFMY 152203Z 1522/1618 26013KT P6SM SCT015 BKN025 OVC050
      TEMPO 1522/1524 -RA SCT025 BKN050 OVC100
     FM160000 29012KT P6SM BKN100
     FM160300 33008KT P6SM BKN100
     FM161400 05010KT P6SM BKN100=



000
FTUS42 KTBW 152200 AAB
TAFSRQ
TAF AMD
KSRQ 152201Z 1522/1618 28019G27KT P6SM -RA BKN006 BKN015 OVC025
      TEMPO 1522/1524 SCT015 BKN025
     FM160100 31011KT P6SM BKN100
     FM160500 35010KT P6SM SCT200
     FM161400 05011KT P6SM SCT200=



000
FTUS42 KTBW 152200 AAA
TAFPIE
TAF AMD
KPIE 152200Z 1522/1618 27017G24KT P6SM VCSH BKN010 BKN030
      TEMPO 1522/1524 SCT010 SCT030 BKN100
     FM160100 33013KT P6SM BKN100
     FM161400 05012KT P6SM FEW250=



000
FTUS42 KTBW 152100 AAA
TAFTPA
TAF AMD
KTPA 152100Z 1521/1618 23018KT P6SM VCSH SCT020 SCT050 OVC100
      TEMPO 1521/1523 4SM SHRA BKN020 OVC050
     FM160100 32012KT P6SM BKN100
     FM160400 35010KT P6SM SCT200
     FM161400 04012KT P6SM SCT250=



000
FTUS42 KTBW 151900 AAA
TAFSRQ
TAF AMD
KSRQ 151901Z 1519/1618 20014G24KT P6SM VCTS SCT020CB OVC050
      TEMPO 1519/1521 3SM SHRA BKN008 BKN020
     FM152100 24015KT P6SM VCTS BKN020CB OVC040
     FM160100 31011KT P6SM BKN100
     FM160500 35010KT P6SM SCT200
     FM161400 05011KT P6SM SCT200=



000
FTUS42 KTBW 151700
TAFSRQ
TAF
KSRQ 151736Z 1518/1618 20020G30KT P6SM VCTS SCT020CB OVC050
      TEMPO 1518/1521 3SM SHRA BKN020
     FM152100 24015KT P6SM VCTS BKN020CB OVC040
     FM160100 31011KT P6SM BKN100
     FM160500 35010KT P6SM SCT200
     FM161400 05011KT P6SM SCT200=



000
FTUS42 KTBW 151700
TAFTPA
TAF
KTPA 151736Z 1518/1618 21018G28KT P6SM VCTS SCT020CB OVC040
      TEMPO 1518/1521 3SM SHRA BKN020
     FM152100 26016KT P6SM VCTS BKN020CB OVC050
     FM160100 32012KT P6SM BKN100
     FM160400 35010KT P6SM SCT200
     FM161400 04012KT P6SM SCT250=



000
FTUS42 KTBW 151700
TAFFMY
TAF
KFMY 151736Z 1518/1618 21015G25KT P6SM VCTS SCT020CB BKN050
      TEMPO 1520/1524 VRB15G25KT 4SM TSRA BKN020CB
     FM160000 29012KT P6SM BKN100
     FM160300 33008KT P6SM BKN100
     FM161400 05010KT P6SM BKN100=



000
FTUS42 KTBW 151700
TAFPIE
TAF
KPIE 151736Z 1518/1618 22020G30KT P6SM VCTS SCT020CB OVC040
      TEMPO 1518/1521 3SM SHRA BKN020
     FM152100 27018KT P6SM VCTS BKN020CB OVC050
     FM160100 33013KT P6SM BKN100
     FM161400 05012KT P6SM FEW250=



000
FTUS42 KTBW 151700
TAFRSW
TAF
KRSW 151736Z 1518/1618 23017KT P6SM VCTS SCT020CB BKN050
      TEMPO 1520/1524 VRB15G25KT 4SM TSRA BKN020CB
     FM160000 28010KT P6SM BKN100
     FM160300 30008KT P6SM BKN100
     FM161100 36010KT P6SM BKN080
     FM161400 04011KT P6SM BKN100=



000
FTUS42 KTBW 151600 AAA
TAFSRQ
TAF AMD
KSRQ 151614Z 1516/1612 20018G29KT P6SM VCSH SCT025 BKN050
     FM151800 26020G28KT P6SM VCTS SCT025CB BKN050
     FM160000 33010KT P6SM FEW050=



000
FTUS42 KTBW 151600 AAA
TAFPIE
TAF AMD
KPIE 151609Z 1516/1612 20018G28KT P6SM VCTS SCT020CB BKN050 OVC100
      TEMPO 1516/1518 3SM SHRA BKN018
     FM151800 27020G28KT P6SM VCTS SCT025CB BKN050
     FM160000 34012KT P6SM FEW050=



000
FTUS42 KTBW 151600 AAB
TAFTPA
TAF AMD
KTPA 151607Z 1516/1612 20015G25KT P6SM VCTS SCT020CB BKN050 OVC100
      TEMPO 1516/1518 3SM SHRA BKN020
     FM151800 27018G27KT P6SM VCTS SCT025CB BKN050
     FM160000 33010KT P6SM FEW050=



000
FTUS42 KTBW 151400 AAA
TAFTPA
TAF AMD
KTPA 151455Z 1515/1612 20015G25KT P6SM VCSH SCT025 BKN120
     FM151800 27018G27KT P6SM VCTS SCT025CB BKN050
     FM160000 33010KT P6SM FEW050=



000
FTUS42 KTBW 151100 AAA
TAFRSW
TAF AMD
KRSW 151153Z 1512/1612 16006KT P6SM SCT008 BKN070
      TEMPO 1512/1514 BKN008
     FM151400 19012KT P6SM SCT025 BKN050
     FM151700 25018G26KT P6SM VCTS SCT030CB BKN050
     FM160200 35010KT P6SM SCT050=



000
FTUS42 KTBW 151100
TAFSRQ
TAF
KSRQ 151120Z 1512/1612 15004KT P6SM SCT008 BKN070
      TEMPO 1512/1514 BKN008
     FM151500 24014G22KT P6SM VCSH SCT025 BKN050
     FM151800 26020G28KT P6SM VCTS SCT025CB BKN050
     FM160000 33010KT P6SM FEW050=



000
FTUS42 KTBW 151100
TAFPIE
TAF
KPIE 151120Z 1512/1612 17005KT P6SM SCT015 SCT250
     FM151500 21014G22KT P6SM VCSH SCT025 BKN050
     FM151800 27020G28KT P6SM VCTS SCT025CB BKN050
     FM160000 34012KT P6SM FEW050=



000
FTUS42 KTBW 151100
TAFFMY
TAF
KFMY 151120Z 1512/1612 16006KT P6SM SCT070
     FM151400 19012KT P6SM SCT025 BKN050
     FM151700 25016G26KT P6SM VCTS SCT030CB BKN050
     FM160200 33010KT P6SM SCT050=



000
FTUS42 KTBW 151100
TAFRSW
TAF
KRSW 151120Z 1512/1612 16006KT P6SM SCT070
     FM151400 19012KT P6SM SCT025 BKN050
     FM151700 25018G26KT P6SM VCTS SCT030CB BKN050
     FM160200 35010KT P6SM SCT050=



000
FTUS42 KTBW 151100
TAFTPA
TAF
KTPA 151120Z 1512/1612 17005KT P6SM SCT015 SCT250
     FM151500 23015G25KT P6SM VCSH SCT025 BKN050
     FM151800 27018G27KT P6SM VCTS SCT025CB BKN050
     FM160000 33010KT P6SM FEW050=



000
FTUS42 KTBW 150900 AAA
TAFTPA
TAF AMD
KTPA 150902Z 1509/1606 17005KT P6SM BKN250
     FM151500 23015G25KT P6SM VCSH SCT025 BKN050
     FM151800 27018G27KT P6SM VCTS SCT025CB BKN050
     FM160000 33010KT P6SM SCT050=



000
FTUS42 KTBW 150500
TAFSRQ
TAF
KSRQ 150536Z 1506/1606 15004KT P6SM BKN250
     FM151500 24014G22KT P6SM VCSH SCT025 BKN050
     FM151800 26020G28KT P6SM VCTS SCT025CB BKN050
     FM160000 33010KT P6SM SCT050=



000
FTUS42 KTBW 150500
TAFTPA
TAF
KTPA 150536Z 1506/1606 17005KT P6SM BKN250
     FM151500 23015G25KT P6SM VCSH SCT025 BKN050
     FM151800 27018G27KT P6SM VCTS SCT025CB BKN050
     FM160000 33010KT P6SM SCT050=



000
FTUS42 KTBW 150500
TAFPIE
TAF
KPIE 150536Z 1506/1606 17005KT P6SM BKN250
     FM151500 21014G22KT P6SM VCSH SCT025 BKN050
     FM151800 27020G28KT P6SM VCTS SCT025CB BKN050
     FM160000 34013KT P6SM SCT050=



000
FTUS42 KTBW 150500
TAFFMY
TAF
KFMY 150536Z 1506/1606 13004KT P6SM SCT250
     FM151000 16006KT 6SM BR SCT003
     FM151400 18012KT P6SM SCT025 BKN050
     FM151700 24016G26KT P6SM VCTS SCT030CB BKN050
     FM160200 33010KT P6SM SCT050=



000
FTUS42 KTBW 150500
TAFRSW
TAF
KRSW 150536Z 1506/1606 12004KT P6SM SCT250
     FM151000 16006KT 6SM BR SCT003
     FM151400 18012KT P6SM SCT025 BKN050
     FM151700 24018G26KT P6SM VCTS SCT030CB BKN050
     FM160200 35010KT P6SM SCT050=



000
FTUS42 KTBW 150300 AAA
TAFTPA
TAF AMD
KTPA 150303Z 1503/1524 18005KT P6SM FEW040 BKN250
     FM150400 19005KT P6SM BKN150 OVC250
     FM151500 23015G25KT P6SM VCSH SCT025 BKN050=



000
FTUS42 KTBW 142300
TAFFMY
TAF
KFMY 142329Z 1500/1524 24008KT P6SM SCT250
     FM150300 15004KT P6SM BKN150 OVC250
     FM151000 16006KT 6SM BR SCT003 BKN010
     FM151400 18012KT P6SM SCT015 BKN025
     FM151600 24016G26KT P6SM SCT030 BKN150=



000
FTUS42 KTBW 142300
TAFRSW
TAF
KRSW 142329Z 1500/1524 24010KT P6SM SCT250
     FM150300 15004KT P6SM BKN150 OVC250
     FM151000 16006KT 6SM BR SCT003 BKN010
     FM151400 18012KT P6SM SCT015 BKN025
     FM151600 24018G26KT P6SM SCT030 BKN150=



000
FTUS42 KTBW 142300
TAFTPA
TAF
KTPA 142329Z 1500/1524 23006KT P6SM FEW040 BKN250
     FM150400 19005KT P6SM BKN150 OVC250
     FM151500 23015G25KT P6SM VCSH SCT025 BKN050=



000
FTUS42 KTBW 142300
TAFSRQ
TAF
KSRQ 142329Z 1500/1524 22011KT P6SM BKN250
     FM150300 18005KT P6SM BKN150 OVC250
     FM151500 24014G22KT P6SM VCSH SCT025 BKN050=



000
FTUS42 KTBW 142300
TAFPIE
TAF
KPIE 142329Z 1500/1524 23009KT P6SM BKN250
     FM150400 17005KT P6SM BKN150 OVC250
     FM151500 21014G22KT P6SM VCSH SCT025 BKN050=



000
FTUS42 KTBW 142000 AAA
TAFTPA
TAF AMD
KTPA 142059Z 1421/1518 19008KT P6SM FEW050 BKN300
     FM142200 25009KT P6SM FEW040 SCT150 BKN250
     FM150400 19005KT P6SM BKN150 OVC250
     FM151500 21014G22KT P6SM VCSH SCT025 BKN050=



000
FTUS42 KTBW 141700
TAFSRQ
TAF
KSRQ 141721Z 1418/1518 21013KT P6SM FEW040 SCT150 BKN250
     FM142200 25011KT P6SM FEW040 SCT150 BKN250
     FM150300 16005KT P6SM BKN150 OVC250
     FM151500 20014G22KT P6SM VCSH SCT025 BKN050=



000
FTUS42 KTBW 141700
TAFTPA
TAF
KTPA 141721Z 1418/1518 22011KT P6SM FEW035 SCT150 BKN250
     FM142200 25009KT P6SM FEW040 SCT150 BKN250
     FM150400 19005KT P6SM BKN150 OVC250
     FM151500 21014G22KT P6SM VCSH SCT025 BKN050=



000
FTUS42 KTBW 141700
TAFPIE
TAF
KPIE 141721Z 1418/1518 22011KT P6SM FEW035 SCT150 BKN250
     FM142200 24009KT P6SM FEW040 SCT150 BKN250
     FM150400 17005KT P6SM BKN150 OVC250
     FM151500 21014G22KT P6SM VCSH SCT025 BKN050=



000
FTUS42 KTBW 141700
TAFFMY
TAF
KFMY 141721Z 1418/1518 23009KT P6SM SCT040 BKN250
     FM150300 15004KT P6SM BKN150 OVC250
     FM151000 16006KT 6SM BR SCT003 BKN010
     FM151400 18012KT P6SM SCT015 BKN025
     FM151600 22016G24KT P6SM SCT030 BKN150=



000
FTUS42 KTBW 141700
TAFRSW
TAF
KRSW 141721Z 1418/1518 23009KT P6SM SCT040 BKN250
     FM150300 15004KT P6SM BKN150 OVC250
     FM151000 16006KT 6SM BR SCT003 BKN010
     FM151400 18012KT P6SM SCT015 BKN025
     FM151600 22016G24KT P6SM SCT030 BKN150=



000
FTUS42 KTBW 141500 AAA
TAFTPA
TAF AMD
KTPA 141505Z 1415/1512 19008KT P6SM SCT020 BKN060
     FM141800 24011KT P6SM SCT050 BKN100 BKN250
     FM150200 18005KT P6SM FEW050 BKN100 BKN250=



000
FTUS42 KTBW 141400 AAA
TAFRSW
TAF AMD
KRSW 141427Z 1414/1512 16008KT P6SM SCT005 BKN015
      TEMPO 1414/1415 BKN005
     FM141500 18008KT P6SM SCT020 BKN035
     FM141700 24010KT P6SM SCT050 BKN100 BKN250
     FM150200 16004KT P6SM FEW050 BKN100 BKN250=



000
FTUS42 KTBW 141100
TAFFMY
TAF
KFMY 141138Z 1412/1512 11006KT 3SM BR SCT003 BKN060
      TEMPO 1412/1414 1/2SM FG BKN002
     FM141400 16008KT P6SM SCT020 BKN060
     FM141700 24010KT P6SM SCT050 BKN100 BKN250
     FM150200 16004KT P6SM FEW050 BKN100 BKN250=



000
FTUS42 KTBW 141100
TAFSRQ
TAF
KSRQ 141138Z 1412/1512 12009KT P6SM SCT007 BKN060
      TEMPO 1412/1414 BKN007
     FM141400 16010KT P6SM SCT025 BKN060
     FM141700 23013KT P6SM SCT050 BKN100 BKN250
     FM150200 17005KT P6SM FEW050 BKN100 BKN250=



000
FTUS42 KTBW 141100
TAFPIE
TAF
KPIE 141138Z 1412/1512 12009KT P6SM SCT020 BKN035 BKN050
     FM141400 16010KT P6SM SCT030 BKN050
     FM141900 23012KT P6SM SCT050 BKN100 BKN250
     FM150200 19007KT P6SM FEW050 BKN100 BKN250=



000
FTUS42 KTBW 141100
TAFRSW
TAF
KRSW 141138Z 1412/1512 11006KT 3SM BR SCT003 BKN060
      TEMPO 1412/1414 1/2SM FG BKN002
     FM141400 16008KT P6SM SCT020 BKN060
     FM141700 24010KT P6SM SCT050 BKN100 BKN250
     FM150200 16004KT P6SM FEW050 BKN100 BKN250=



000
FTUS42 KTBW 141100
TAFTPA
TAF
KTPA 141138Z 1412/1512 12008KT P6SM FEW020 BKN040
     FM141400 16007KT P6SM SCT030 BKN060
     FM141800 24011KT P6SM SCT050 BKN100 BKN250
     FM150200 18005KT P6SM FEW050 BKN100 BKN250=



000
FTUS42 KTBW 141100 AAB
TAFRSW
TAF AMD
KRSW 141112Z 1411/1506 09004KT 3SM BR SCT003 BKN060
      TEMPO 1411/1414 1/2SM FG BKN002
     FM141400 15008KT P6SM SCT025 BKN080
     FM141800 22010KT P6SM SCT050 BKN120 BKN250
     FM150300 15005KT P6SM FEW050 BKN120 BKN250=



000
FTUS42 KTBW 141100 AAB
TAFFMY
TAF AMD
KFMY 141112Z 1411/1506 11004KT 3SM BR SCT003 BKN060
      TEMPO 1411/1414 1/2SM FG BKN002
     FM141400 15008KT P6SM SCT025 BKN080
     FM141800 22010KT P6SM SCT050 BKN120 BKN250
     FM150300 15005KT P6SM FEW050 BKN120 BKN250=



000
FTUS42 KTBW 140900 AAA
TAFRSW
TAF AMD
KRSW 140929Z 1409/1506 09004KT P6SM SCT015 BKN060
      TEMPO 1409/1413 4SM BR BKN002
     FM141300 15008KT P6SM SCT025 BKN080
     FM141800 22010KT P6SM SCT050 BKN120 BKN250
     FM150300 15005KT P6SM FEW050 BKN120 BKN250=



000
FTUS42 KTBW 140900 AAA
TAFTPA
TAF AMD
KTPA 140905Z 1409/1506 10004KT P6SM FEW015 SCT080
     FM141300 14007KT P6SM SCT025 BKN080
     FM141800 24011KT P6SM SCT050 BKN120 BKN250
     FM150300 17005KT P6SM FEW050 BKN120 BKN250=



000
FTUS42 KTBW 140800 AAA
TAFFMY
TAF AMD
KFMY 140800Z 1408/1506 12004KT P6SM SCT015 BKN060
      TEMPO 1408/1412 5SM BR BKN006
     FM141300 15008KT P6SM SCT025 BKN080
     FM141800 22010KT P6SM SCT050 BKN120 BKN250
     FM150300 15005KT P6SM FEW050 BKN120 BKN250=



000
FTUS42 KTBW 140500 RRA
TAFSRQ
TAF
KSRQ 140542Z 1406/1506 08007KT P6SM SCT030 BKN060
     FM140900 10005KT P6SM SCT015 BKN060
     FM141300 14009KT P6SM SCT025 BKN080
     FM141800 23013KT P6SM SCT050 BKN120 BKN250
     FM150300 18005KT P6SM FEW050 BKN120 BKN250=



000
FTUS42 KTBW 140500 RRA
TAFPIE
TAF
KPIE 140542Z 1406/1506 11010KT P6SM BKN040 BKN080
     FM140900 13007KT P6SM SCT015 BKN060
     FM141300 16009KT P6SM SCT025 BKN080
     FM141800 23011KT P6SM SCT050 BKN120 BKN250
     FM150300 18007KT P6SM FEW050 BKN120 BKN250=



000
FTUS42 KTBW 140500 RRA
TAFRSW
TAF
KRSW 140542Z 1406/1506 11007KT P6SM SCT030 BKN060
     FM140900 11004KT P6SM SCT015 BKN060
     FM141300 15008KT P6SM SCT025 BKN080
     FM141800 22010KT P6SM SCT050 BKN120 BKN250
     FM150300 15005KT P6SM FEW050 BKN120 BKN250=



000
FTUS42 KTBW 140500 RRA
TAFFMY
TAF
KFMY 140542Z 1406/1506 10007KT P6SM SCT030 BKN060
     FM140900 11005KT P6SM SCT015 BKN060
     FM141300 15008KT P6SM SCT025 BKN080
     FM141800 22010KT P6SM SCT050 BKN120 BKN250
     FM150300 15005KT P6SM FEW050 BKN120 BKN250=



000
FTUS42 KTBW 140500 RRA
TAFTPA
TAF
KTPA 140542Z 1406/1506 11007KT P6SM SCT030 BKN080
     FM140900 12004KT P6SM SCT015 BKN060
     FM141300 14007KT P6SM SCT025 BKN080
     FM141800 24011KT P6SM SCT050 BKN120 BKN250
     FM150300 17005KT P6SM FEW050 BKN120 BKN250=



000
FTUS42 KTBW 140300 AAA
TAFTPA
TAF AMD
KTPA 140309Z 1403/1424 10007KT P6SM FEW025 BKN080
     FM140700 11006KT P6SM FEW015 SCT250
     FM141500 19009KT P6SM SCT200
     FM142100 23013KT P6SM SCT200=



000
FTUS42 KTBW 140000 CCA
TAFPIE
TAF COR
KPIE 140002Z 1400/1424 12012KT P6SM BKN040
     FM140700 12009KT P6SM FEW015 SCT250
     FM141500 15010KT P6SM SCT200
     FM141800 20011KT P6SM SCT200=



000
FTUS42 KTBW 132300 CCA
TAFSRQ
TAF COR
KSRQ 132343Z 1400/1424 11011KT P6SM BKN040
     FM140400 10010KT P6SM SCT030 SCT250
     FM140900 11006KT 6SM BR FEW001 SCT020
     FM141500 17010KT P6SM FEW200
     FM141700 21013KT P6SM FEW250=



000
FTUS42 KTBW 132300 RRA
TAFSRQ
TAF
KSRQ 132341Z 1400/1424 11011KT P6SM BKN040
     FM140400 10010KT P6SM SCT250
     FM140900 11006KT 6SM BR FEW001 SCT020
     FM141500 17010KT P6SM FEW200
     FM141700 21013KT P6SM FEW250=



000
FTUS42 KTBW 132300 RRA
TAFPIE
TAF
KPIE 132341Z 1400/1424 10011KT P6SM BKN040
     FM140700 12009KT P6SM FEW015 SCT250
     FM141500 15010KT P6SM SCT200
     FM141800 20011KT P6SM SCT200=



000
FTUS42 KTBW 132300 RRA
TAFRSW
TAF
KRSW 132341Z 1400/1424 07011KT P6SM BKN040
     FM140200 09007KT P6SM SCT250
     FM140700 VRB03KT P6SM FEW250
     FM140900 VRB03KT 6SM BR BCFG FEW001 SCT020
     FM141300 14007KT P6SM FEW250
     FM141800 21011KT P6SM SCT200=



000
FTUS42 KTBW 132300 RRA
TAFFMY
TAF
KFMY 132341Z 1400/1424 08011KT P6SM BKN035
     FM140200 11008KT P6SM SCT250
     FM140700 VRB04KT P6SM FEW250
     FM141100 VRB04KT 6SM BR BCFG FEW001 SCT020
     FM141300 13007KT P6SM FEW250
     FM141800 21012KT P6SM SCT250=



000
FTUS42 KTBW 132300 RRA
TAFTPA
TAF
KTPA 132341Z 1400/1424 11012KT P6SM BKN040
     FM140700 11006KT P6SM FEW015 SCT250
     FM141500 19009KT P6SM SCT200
     FM142100 23013KT P6SM SCT200=



000
FTUS42 KTBW 132300 AAA
TAFPIE
TAF AMD
KPIE 132300Z 1323/1418 10012KT P6SM BKN050 BKN250
     FM140200 10008KT P6SM SCT030 BKN250
     FM141000 13008KT 6SM BR SCT010 BKN035
     FM141500 15010KT P6SM SCT020 BKN040=



000
FTUS42 KTBW 132200 AAA
TAFSRQ
TAF AMD
KSRQ 132216Z 1322/1418 12011KT P6SM BKN050 BKN250
     FM132300 11009KT P6SM BKN035 BKN250
     FM140500 10009KT P6SM SCT030 BKN250
     FM141000 11005KT 6SM BR SCT010 BKN250
     FM141500 18010KT P6SM SCT020 BKN040=



000
FTUS42 KTBW 132100 AAA
TAFTPA
TAF AMD
KTPA 132107Z 1321/1418 09009KT P6SM BKN050 BKN250
     FM140300 10007KT P6SM SCT030 BKN250
     FM141000 11004KT 6SM BR SCT010 BKN035
     FM141500 17008KT P6SM SCT020 BKN040=



000
FTUS42 KTBW 131700 RRA
TAFFMY
TAF
KFMY 131742Z 1318/1418 06011KT P6SM BKN040 BKN250
     FM132100 08010KT P6SM BKN040 BKN250
     FM140500 10004KT P6SM SCT030 BKN250
     FM141000 11003KT 6SM BR SCT010 BKN250
     FM141500 17010KT P6SM SCT020 BKN040=



000
FTUS42 KTBW 131700 RRA
TAFSRQ
TAF
KSRQ 131742Z 1318/1418 07011KT P6SM BKN050 BKN250
     FM132300 08009KT P6SM BKN035 BKN250
     FM140500 10009KT P6SM SCT030 BKN250
     FM141000 11005KT 6SM BR SCT010 BKN250
     FM141500 18010KT P6SM SCT020 BKN040=



000
FTUS42 KTBW 131700 RRA
TAFTPA
TAF
KTPA 131742Z 1318/1418 10009KT P6SM BKN050 BKN250
     FM140300 09007KT P6SM SCT030 BKN250
     FM141000 11004KT 6SM BR SCT010 BKN035
     FM141500 17008KT P6SM SCT020 BKN040=



000
FTUS42 KTBW 131700 RRA
TAFRSW
TAF
KRSW 131742Z 1318/1418 07010KT P6SM BKN040 BKN250
     FM132100 08010KT P6SM BKN040 BKN250
     FM140500 09004KT P6SM SCT030 BKN250
     FM141000 11003KT 6SM BR SCT010 BKN250
     FM141500 17010KT P6SM SCT020 BKN040=



000
FTUS42 KTBW 131700 RRA
TAFPIE
TAF
KPIE 131742Z 1318/1418 10010KT P6SM SCT050 BKN070 BKN250
     FM132100 07008KT P6SM BKN050 BKN250
     FM140200 10008KT P6SM SCT030 BKN250
     FM141000 13008KT 6SM BR SCT010 BKN035
     FM141500 15010KT P6SM SCT020 BKN040=



    US Dept of Commerce
    National Oceanic and Atmospheric Administration
    National Weather Service
    1325 East West Highway
    Silver Spring, MD 20910
    Page Author: NWS Internet Services Team
Disclaimer
Information Quality
Credits
Glossary
Privacy Policy
Freedom of Information Act (FOIA)
About Us
Career Opportunities